createdAt,value
2023-12-26T00:00:38.021Z,20.25
2023-12-26T00:01:48.554Z,20.83
2023-12-26T00:02:55.466Z,21.05
2023-12-26T00:04:01.025Z,20.15
2023-12-26T00:05:08.000Z,20.90
2023-12-26T00:06:13.557Z,21.13
2023-12-26T00:07:18.850Z,21.92
2023-12-26T00:08:25.570Z,21.17
2023-12-26T00:09:30.890Z,22.90
2023-12-26T00:10:37.518Z,23.27
2023-12-26T00:11:48.785Z,23.55
2023-12-26T00:12:55.738Z,22.25
2023-12-26T00:14:01.197Z,21.80
2023-12-26T00:15:08.369Z,21.13
2023-12-26T00:16:13.807Z,20.92
2023-12-26T00:17:19.112Z,19.95
2023-12-26T00:18:25.869Z,21.48
2023-12-26T00:19:31.333Z,21.95
2023-12-26T00:20:42.440Z,22.55
2023-12-26T00:21:47.755Z,22.23
2023-12-26T00:22:54.730Z,21.80
2023-12-26T00:24:00.444Z,22.33
2023-12-26T00:25:07.407Z,21.67
2023-12-26T00:26:12.849Z,21.85
2023-12-26T00:27:21.333Z,21.30
2023-12-26T00:28:26.675Z,20.38
2023-12-26T00:29:33.448Z,21.02
2023-12-26T00:30:38.936Z,21.90
2023-12-26T00:31:46.360Z,21.73
2023-12-26T00:32:51.898Z,20.88
2023-12-26T00:33:59.206Z,21.77
2023-12-26T00:35:05.718Z,20.73
2023-12-26T00:36:20.560Z,21.27
2023-12-26T00:37:26.004Z,20.70
2023-12-26T00:38:32.806Z,20.75
2023-12-26T00:39:38.223Z,19.37
2023-12-26T00:40:44.974Z,18.85
2023-12-26T00:41:50.392Z,20.00
2023-12-26T00:42:59.049Z,21.05
2023-12-26T00:44:04.777Z,19.33
2023-12-26T00:45:12.629Z,21.10
2023-12-26T00:46:18.159Z,20.33
2023-12-26T00:47:25.005Z,22.05
2023-12-26T00:48:30.521Z,23.77
2023-12-26T00:49:37.393Z,22.85
2023-12-26T00:50:44.275Z,21.08
2023-12-26T00:51:51.043Z,22.80
2023-12-26T00:52:56.822Z,23.08
2023-12-26T00:54:03.948Z,24.58
2023-12-26T00:55:10.929Z,23.63
2023-12-26T00:56:17.675Z,24.30
2023-12-26T00:57:23.211Z,21.33
2023-12-26T00:58:31.621Z,21.67
2023-12-26T00:59:37.391Z,20.63
2023-12-26T01:00:44.165Z,21.10
2023-12-26T01:01:49.600Z,22.05
2023-12-26T01:02:55.220Z,22.33
2023-12-26T01:04:02.120Z,22.92
2023-12-26T01:05:08.095Z,21.63
2023-12-26T01:06:16.947Z,23.10
2023-12-26T01:07:22.523Z,21.98
2023-12-26T01:08:29.311Z,23.17
2023-12-26T01:09:34.731Z,22.85
2023-12-26T01:10:41.469Z,23.30
2023-12-26T01:11:47.066Z,22.15
2023-12-26T01:12:54.411Z,23.98
2023-12-26T01:14:01.761Z,22.45
2023-12-26T01:15:09.030Z,23.27
2023-12-26T01:16:14.530Z,22.42
2023-12-26T01:17:21.231Z,25.15
2023-12-26T01:18:26.743Z,33.87
2023-12-26T01:19:33.559Z,46.63
2023-12-26T01:20:38.993Z,48.83
2023-12-26T01:21:45.875Z,50.90
2023-12-26T01:22:51.311Z,50.50
2023-12-26T01:23:58.628Z,69.75
2023-12-26T01:25:04.088Z,80.00
2023-12-26T01:26:10.764Z,87.45
2023-12-26T01:27:16.229Z,85.78
2023-12-26T01:28:23.017Z,72.88
2023-12-26T01:29:30.356Z,34.30
2023-12-26T01:30:38.219Z,30.55
2023-12-26T01:31:43.700Z,30.48
2023-12-26T01:32:49.282Z,24.48
2023-12-26T01:33:56.671Z,23.38
2023-12-26T01:35:02.296Z,21.43
2023-12-26T01:36:09.411Z,23.70
2023-12-26T01:37:14.934Z,21.75
2023-12-26T01:38:21.755Z,26.27
2023-12-26T01:39:28.286Z,22.33
2023-12-26T01:40:34.988Z,22.63
2023-12-26T01:41:40.431Z,21.77
2023-12-26T01:42:49.132Z,19.52
2023-12-26T01:43:54.546Z,21.57
2023-12-26T01:45:03.172Z,21.35
2023-12-26T01:46:10.218Z,21.40
2023-12-26T01:47:17.186Z,20.77
2023-12-26T01:48:22.771Z,21.05
2023-12-26T01:49:29.652Z,21.20
2023-12-26T01:50:37.924Z,19.33
2023-12-26T01:51:48.317Z,19.55
2023-12-26T01:52:54.290Z,20.63
2023-12-26T01:54:01.373Z,19.67
2023-12-26T01:55:07.227Z,18.13
2023-12-26T01:56:16.625Z,20.83
2023-12-26T01:57:22.170Z,18.80
2023-12-26T01:58:29.746Z,20.23
2023-12-26T01:59:35.148Z,19.20
2023-12-26T02:00:44.263Z,21.50
2023-12-26T02:01:49.682Z,19.15
2023-12-26T02:02:55.717Z,19.63
2023-12-26T02:04:03.727Z,19.30
2023-12-26T02:05:09.746Z,20.27
2023-12-26T02:06:18.203Z,20.02
2023-12-26T02:07:23.596Z,19.65
2023-12-26T02:08:30.529Z,19.63
2023-12-26T02:09:36.158Z,20.05
2023-12-26T02:10:42.892Z,17.88
2023-12-26T02:11:48.285Z,17.83
2023-12-26T02:12:55.271Z,19.23
2023-12-26T02:14:00.901Z,19.85
2023-12-26T02:15:08.299Z,19.13
2023-12-26T02:16:24.128Z,19.13
2023-12-26T02:17:31.774Z,18.10
2023-12-26T02:18:37.877Z,18.75
2023-12-26T02:19:47.891Z,17.90
2023-12-26T02:20:53.308Z,19.52
2023-12-26T02:22:00.109Z,17.90
2023-12-26T02:23:05.509Z,17.70
2023-12-26T02:24:14.196Z,18.65
2023-12-26T02:25:20.767Z,16.80
2023-12-26T02:26:28.900Z,18.85
2023-12-26T02:27:36.806Z,17.10
2023-12-26T02:28:44.372Z,17.52
2023-12-26T02:29:52.202Z,17.50
2023-12-26T02:30:59.453Z,17.20
2023-12-26T02:32:05.393Z,17.92
2023-12-26T02:33:12.403Z,17.35
2023-12-26T02:34:18.261Z,17.05
2023-12-26T02:35:25.482Z,15.43
2023-12-26T02:36:31.023Z,15.88
2023-12-26T02:37:37.860Z,15.23
2023-12-26T02:38:43.342Z,16.87
2023-12-26T02:39:53.187Z,15.18
2023-12-26T02:40:59.864Z,16.45
2023-12-26T02:42:05.333Z,17.42
2023-12-26T02:43:10.709Z,16.23
2023-12-26T02:44:17.459Z,15.82
2023-12-26T02:45:23.064Z,16.10
2023-12-26T02:46:29.836Z,16.70
2023-12-26T02:47:35.252Z,16.88
2023-12-26T02:48:42.191Z,16.23
2023-12-26T02:49:47.752Z,16.70
2023-12-26T02:50:55.397Z,16.63
2023-12-26T02:52:00.814Z,17.60
2023-12-26T02:53:07.760Z,16.83
2023-12-26T02:54:13.256Z,17.27
2023-12-26T02:55:22.447Z,16.70
2023-12-26T02:56:27.898Z,16.58
2023-12-26T02:57:34.703Z,16.02
2023-12-26T02:58:40.090Z,15.00
2023-12-26T02:59:46.785Z,15.57
2023-12-26T03:00:52.278Z,16.07
2023-12-26T03:02:00.369Z,15.43
2023-12-26T03:03:06.148Z,13.65
2023-12-26T03:04:12.906Z,13.57
2023-12-26T03:05:18.432Z,13.93
2023-12-26T03:06:25.955Z,13.07
2023-12-26T03:07:31.342Z,13.60
2023-12-26T03:08:38.126Z,12.80
2023-12-26T03:09:43.466Z,13.30
2023-12-26T03:10:51.980Z,13.90
2023-12-26T03:11:57.467Z,12.20
2023-12-26T03:13:04.227Z,14.07
2023-12-26T03:14:09.964Z,11.52
2023-12-26T03:15:18.289Z,13.18
2023-12-26T03:16:23.838Z,12.30
2023-12-26T03:17:30.717Z,13.20
2023-12-26T03:18:36.328Z,13.82
2023-12-26T03:19:43.295Z,12.60
2023-12-26T03:20:48.869Z,12.43
2023-12-26T03:21:55.651Z,11.60
2023-12-26T03:23:01.151Z,13.40
2023-12-26T03:24:07.359Z,12.30
2023-12-26T03:25:14.542Z,12.45
2023-12-26T03:26:21.836Z,11.55
2023-12-26T03:27:28.995Z,12.27
2023-12-26T03:28:34.326Z,11.68
2023-12-26T03:29:41.072Z,12.75
2023-12-26T03:30:46.551Z,11.60
2023-12-26T03:31:53.714Z,12.60
2023-12-26T03:32:59.527Z,12.05
2023-12-26T03:34:06.481Z,11.57
2023-12-26T03:35:12.778Z,12.02
2023-12-26T03:36:19.543Z,11.18
2023-12-26T03:37:25.004Z,11.25
2023-12-26T03:38:31.722Z,10.70
2023-12-26T03:39:37.105Z,13.13
2023-12-26T03:40:43.846Z,11.73
2023-12-26T03:41:51.770Z,12.77
2023-12-26T03:42:58.624Z,12.80
2023-12-26T03:44:04.107Z,13.40
2023-12-26T03:45:11.716Z,14.00
2023-12-26T03:46:17.080Z,13.20
2023-12-26T03:47:23.831Z,12.77
2023-12-26T03:48:29.460Z,13.02
2023-12-26T03:49:36.624Z,13.50
2023-12-26T03:50:42.317Z,11.25
2023-12-26T03:51:50.418Z,13.52
2023-12-26T03:52:56.143Z,13.60
2023-12-26T03:54:03.276Z,13.52
2023-12-26T03:55:09.136Z,12.30
2023-12-26T03:56:15.890Z,12.63
2023-12-26T03:57:23.026Z,13.43
2023-12-26T03:58:29.720Z,11.27
2023-12-26T03:59:35.441Z,13.25
2023-12-26T04:00:42.162Z,13.55
2023-12-26T04:01:47.677Z,13.27
2023-12-26T04:02:54.747Z,13.38
2023-12-26T04:04:00.551Z,13.18
2023-12-26T04:05:07.562Z,13.52
2023-12-26T04:06:13.244Z,13.50
2023-12-26T04:07:19.975Z,12.93
2023-12-26T04:08:25.365Z,13.07
2023-12-26T04:09:32.108Z,13.45
2023-12-26T04:10:37.636Z,14.77
2023-12-26T04:11:44.401Z,14.93
2023-12-26T04:12:51.541Z,13.80
2023-12-26T04:13:58.392Z,13.55
2023-12-26T04:15:03.823Z,12.50
2023-12-26T04:16:10.810Z,13.02
2023-12-26T04:17:16.238Z,10.25
2023-12-26T04:18:23.042Z,11.17
2023-12-26T04:19:28.831Z,9.63
2023-12-26T04:20:35.668Z,9.32
2023-12-26T04:21:41.116Z,9.07
2023-12-26T04:22:46.611Z,8.77
2023-12-26T04:23:53.490Z,8.60
2023-12-26T04:24:59.009Z,8.27
2023-12-26T04:26:05.845Z,9.65
2023-12-26T04:27:11.317Z,11.07
2023-12-26T04:28:19.813Z,10.55
2023-12-26T04:29:25.634Z,9.67
2023-12-26T04:30:32.427Z,10.18
2023-12-26T04:31:37.945Z,9.32
2023-12-26T04:32:44.788Z,9.45
2023-12-26T04:33:50.402Z,9.80
2023-12-26T04:34:57.191Z,8.63
2023-12-26T04:36:02.725Z,11.35
2023-12-26T04:37:09.625Z,12.43
2023-12-26T04:38:15.203Z,14.45
2023-12-26T04:39:22.089Z,13.30
2023-12-26T04:40:27.513Z,13.47
2023-12-26T04:41:34.298Z,12.80
2023-12-26T04:42:39.751Z,12.55
2023-12-26T04:43:48.202Z,12.75
2023-12-26T04:44:53.634Z,12.48
2023-12-26T04:46:00.283Z,13.13
2023-12-26T04:47:05.808Z,13.18
2023-12-26T04:48:13.131Z,14.23
2023-12-26T04:49:18.777Z,13.18
2023-12-26T04:50:25.629Z,14.18
2023-12-26T04:51:32.656Z,13.73
2023-12-26T04:52:39.432Z,13.50
2023-12-26T04:53:44.969Z,13.70
2023-12-26T04:54:51.701Z,13.52
2023-12-26T04:55:57.200Z,13.55
2023-12-26T04:57:03.937Z,13.48
2023-12-26T04:58:09.308Z,11.95
2023-12-26T04:59:17.813Z,10.88
2023-12-26T05:00:23.757Z,12.23
2023-12-26T05:01:30.569Z,13.55
2023-12-26T05:02:35.988Z,13.57
2023-12-26T05:03:42.931Z,13.07
2023-12-26T05:04:48.724Z,13.05
2023-12-26T05:05:55.607Z,14.52
2023-12-26T05:07:01.035Z,13.45
2023-12-26T05:08:07.990Z,11.60
2023-12-26T05:09:13.651Z,11.95
2023-12-26T05:10:20.813Z,11.98
2023-12-26T05:11:26.725Z,12.82
2023-12-26T05:12:33.518Z,11.80
2023-12-26T05:13:39.874Z,11.60
2023-12-26T05:14:48.497Z,10.52
2023-12-26T05:15:53.940Z,11.15
2023-12-26T05:17:00.681Z,11.85
2023-12-26T05:18:06.697Z,12.85
2023-12-26T05:19:13.774Z,12.98
2023-12-26T05:20:29.772Z,11.50
2023-12-26T05:21:38.022Z,13.00
2023-12-26T05:22:43.790Z,11.23
2023-12-26T05:23:50.855Z,10.90
2023-12-26T05:24:56.442Z,11.57
2023-12-26T05:26:08.252Z,12.68
2023-12-26T05:27:18.794Z,11.60
2023-12-26T05:28:25.988Z,12.63
2023-12-26T05:29:31.588Z,12.85
2023-12-26T05:30:40.100Z,11.23
2023-12-26T05:31:45.604Z,11.38
2023-12-26T05:32:52.544Z,10.13
2023-12-26T05:33:58.124Z,8.48
2023-12-26T05:35:03.601Z,9.57
2023-12-26T05:36:10.558Z,7.63
2023-12-26T05:37:16.089Z,8.63
2023-12-26T05:38:22.812Z,8.35
2023-12-26T05:39:28.325Z,8.93
2023-12-26T05:40:35.122Z,8.70
2023-12-26T05:41:42.033Z,8.18
2023-12-26T05:42:47.473Z,8.10
2023-12-26T05:43:54.294Z,9.05
2023-12-26T05:44:59.755Z,8.02
2023-12-26T05:46:08.485Z,8.45
2023-12-26T05:47:14.206Z,8.43
2023-12-26T05:48:21.208Z,8.63
2023-12-26T05:49:26.885Z,8.68
2023-12-26T05:50:33.809Z,8.95
2023-12-26T05:51:39.270Z,8.30
2023-12-26T05:52:46.016Z,9.45
2023-12-26T05:53:51.514Z,9.30
2023-12-26T05:54:58.418Z,8.80
2023-12-26T05:56:04.040Z,9.40
2023-12-26T05:57:10.782Z,9.82
2023-12-26T05:58:16.307Z,9.30
2023-12-26T05:59:21.745Z,9.50
2023-12-26T06:00:28.600Z,9.32
2023-12-26T06:01:35.683Z,10.00
2023-12-26T06:02:42.446Z,9.98
2023-12-26T06:03:48.012Z,9.75
2023-12-26T06:04:54.754Z,8.98
2023-12-26T06:06:00.310Z,9.23
2023-12-26T06:07:07.254Z,10.38
2023-12-26T06:08:12.691Z,8.60
2023-12-26T06:09:21.117Z,10.27
2023-12-26T06:10:26.732Z,9.63
2023-12-26T06:11:33.452Z,8.65
2023-12-26T06:12:38.947Z,9.25
2023-12-26T06:13:45.600Z,10.50
2023-12-26T06:14:51.072Z,10.13
2023-12-26T06:15:58.412Z,9.18
2023-12-26T06:17:05.560Z,10.25
2023-12-26T06:18:12.545Z,9.98
2023-12-26T06:19:18.155Z,9.55
2023-12-26T06:20:27.207Z,8.47
2023-12-26T06:21:32.649Z,9.95
2023-12-26T06:22:39.360Z,9.20
2023-12-26T06:23:44.857Z,9.43
2023-12-26T06:24:51.748Z,7.80
2023-12-26T06:25:57.789Z,9.13
2023-12-26T06:27:04.604Z,8.95
2023-12-26T06:28:10.068Z,7.60
2023-12-26T06:29:16.853Z,8.68
2023-12-26T06:30:22.313Z,7.53
2023-12-26T06:31:29.080Z,7.43
2023-12-26T06:32:36.150Z,8.18
2023-12-26T06:33:41.666Z,7.68
2023-12-26T06:34:48.551Z,7.85
2023-12-26T06:35:53.994Z,9.13
2023-12-26T06:37:00.706Z,8.52
2023-12-26T06:38:14.423Z,8.73
2023-12-26T06:39:21.228Z,8.00
2023-12-26T06:40:26.686Z,8.52
2023-12-26T06:41:33.808Z,8.02
2023-12-26T06:42:39.144Z,8.97
2023-12-26T06:43:45.906Z,9.75
2023-12-26T06:44:51.347Z,9.20
2023-12-26T06:45:58.146Z,8.52
2023-12-26T06:47:03.591Z,8.38
2023-12-26T06:48:12.409Z,8.70
2023-12-26T06:49:20.406Z,8.73
2023-12-26T06:50:27.314Z,9.70
2023-12-26T06:51:32.741Z,10.40
2023-12-26T06:52:39.465Z,14.07
2023-12-26T06:53:44.829Z,8.73
2023-12-26T06:54:51.033Z,8.25
2023-12-26T06:55:57.852Z,9.10
2023-12-26T06:57:08.379Z,8.80
2023-12-26T06:58:15.283Z,8.43
2023-12-26T06:59:20.748Z,9.18
2023-12-26T07:00:27.662Z,54.80
2023-12-26T07:01:33.158Z,10.80
2023-12-26T07:02:39.894Z,8.35
2023-12-26T07:03:47.249Z,7.75
2023-12-26T07:04:52.708Z,8.47
2023-12-26T07:05:59.517Z,7.93
2023-12-26T07:07:05.492Z,8.38
2023-12-26T07:08:12.252Z,10.10
2023-12-26T07:09:17.757Z,13.80
2023-12-26T07:10:24.566Z,14.45
2023-12-26T07:11:31.121Z,14.90
2023-12-26T07:12:37.993Z,11.90
2023-12-26T07:13:43.446Z,8.60
2023-12-26T07:14:50.219Z,10.65
2023-12-26T07:15:55.673Z,11.47
2023-12-26T07:17:02.615Z,10.70
2023-12-26T07:18:08.682Z,9.43
2023-12-26T07:19:17.304Z,9.40
2023-12-26T07:20:22.896Z,10.27
2023-12-26T07:21:29.766Z,13.30
2023-12-26T07:22:35.222Z,8.93
2023-12-26T07:23:45.175Z,8.68
2023-12-26T07:24:50.993Z,9.25
2023-12-26T07:25:58.051Z,8.60
2023-12-26T07:27:03.473Z,8.80
2023-12-26T07:28:10.603Z,9.52
2023-12-26T07:29:16.123Z,9.68
2023-12-26T07:30:22.936Z,8.98
2023-12-26T07:31:28.492Z,9.75
2023-12-26T07:32:35.408Z,9.43
2023-12-26T07:33:42.820Z,8.98
2023-12-26T07:34:51.802Z,9.32
2023-12-26T07:36:00.493Z,9.32
2023-12-26T07:37:07.267Z,9.65
2023-12-26T07:38:12.647Z,9.20
2023-12-26T07:39:19.822Z,9.32
2023-12-26T07:40:25.276Z,9.63
2023-12-26T07:41:32.151Z,9.50
2023-12-26T07:42:37.578Z,10.05
2023-12-26T07:43:44.341Z,10.85
2023-12-26T07:44:50.264Z,12.10
2023-12-26T07:45:57.151Z,12.73
2023-12-26T07:47:03.235Z,68.25
2023-12-26T07:48:09.334Z,13.02
2023-12-26T07:49:17.042Z,11.50
2023-12-26T07:50:24.952Z,11.15
2023-12-26T07:51:32.146Z,16.77
2023-12-26T07:52:37.578Z,11.88
2023-12-26T07:53:44.358Z,10.13
2023-12-26T07:54:49.747Z,15.00
2023-12-26T07:55:56.525Z,12.15
2023-12-26T07:57:01.959Z,10.48
2023-12-26T07:58:10.345Z,12.05
2023-12-26T07:59:16.625Z,13.18
2023-12-26T08:00:23.011Z,11.43
2023-12-26T08:01:29.709Z,11.45
2023-12-26T08:02:35.107Z,12.20
2023-12-26T08:03:42.036Z,10.88
2023-12-26T08:04:47.500Z,10.80
2023-12-26T08:05:56.073Z,11.55
2023-12-26T08:07:02.472Z,10.23
2023-12-26T08:08:09.906Z,11.55
2023-12-26T08:09:15.464Z,11.10
2023-12-26T08:10:22.522Z,11.15
2023-12-26T08:11:28.259Z,11.33
2023-12-26T08:12:35.644Z,11.05
2023-12-26T08:13:41.057Z,16.30
2023-12-26T08:14:48.016Z,13.95
2023-12-26T08:15:53.413Z,47.28
2023-12-26T08:17:00.266Z,39.75
2023-12-26T08:18:07.504Z,38.25
2023-12-26T08:19:16.076Z,65.63
2023-12-26T08:20:22.724Z,28.42
2023-12-26T08:21:31.216Z,42.90
2023-12-26T08:22:36.595Z,19.17
2023-12-26T08:23:41.991Z,49.53
2023-12-26T08:24:48.912Z,33.97
2023-12-26T08:25:54.339Z,53.35
2023-12-26T08:27:01.393Z,46.70
2023-12-26T08:28:11.154Z,78.60
2023-12-26T08:29:17.950Z,46.78
2023-12-26T08:30:23.837Z,29.65
2023-12-26T08:31:30.768Z,23.80
2023-12-26T08:32:36.260Z,22.92
2023-12-26T08:33:43.163Z,30.33
2023-12-26T08:34:48.593Z,29.13
2023-12-26T08:35:55.442Z,23.83
2023-12-26T08:37:02.540Z,12.02
2023-12-26T08:38:09.486Z,11.27
2023-12-26T08:39:15.009Z,17.88
2023-12-26T08:40:22.865Z,12.20
2023-12-26T08:41:28.472Z,11.60
2023-12-26T08:42:35.503Z,18.52
2023-12-26T08:43:40.891Z,14.00
2023-12-26T08:44:47.652Z,13.70
2023-12-26T08:45:53.085Z,12.52
2023-12-26T08:46:59.845Z,12.68
2023-12-26T08:48:05.399Z,12.07
2023-12-26T08:49:12.267Z,17.67
2023-12-26T08:50:18.190Z,15.57
2023-12-26T08:51:25.007Z,16.05
2023-12-26T08:52:32.614Z,23.02
2023-12-26T08:53:39.280Z,28.27
2023-12-26T08:54:46.253Z,29.88
2023-12-26T08:55:53.233Z,16.37
2023-12-26T08:56:58.787Z,15.05
2023-12-26T08:58:05.691Z,16.52
2023-12-26T08:59:11.097Z,14.45
2023-12-26T09:00:18.809Z,14.48
2023-12-26T09:01:24.302Z,16.45
2023-12-26T09:02:31.048Z,15.95
2023-12-26T09:03:36.501Z,16.13
2023-12-26T09:04:43.383Z,17.42
2023-12-26T09:05:48.905Z,14.80
2023-12-26T09:06:55.791Z,13.13
2023-12-26T09:08:03.122Z,12.70
2023-12-26T09:09:10.061Z,12.73
2023-12-26T09:10:15.626Z,13.25
2023-12-26T09:11:22.328Z,13.32
2023-12-26T09:12:27.706Z,13.32
2023-12-26T09:13:34.386Z,12.30
2023-12-26T09:14:39.838Z,13.25
2023-12-26T09:15:46.948Z,12.38
2023-12-26T09:16:52.356Z,11.25
2023-12-26T09:17:59.340Z,12.30
2023-12-26T09:19:05.556Z,11.45
2023-12-26T09:20:13.179Z,11.77
2023-12-26T09:21:19.101Z,12.63
2023-12-26T09:22:25.897Z,12.30
2023-12-26T09:23:33.041Z,12.75
2023-12-26T09:24:40.441Z,12.27
2023-12-26T09:25:45.947Z,12.77
2023-12-26T09:26:52.726Z,12.40
2023-12-26T09:27:58.314Z,12.23
2023-12-26T09:29:05.109Z,12.30
2023-12-26T09:30:12.383Z,11.50
2023-12-26T09:31:19.500Z,11.13
2023-12-26T09:32:24.928Z,10.63
2023-12-26T09:33:31.784Z,10.15
2023-12-26T09:34:37.587Z,11.15
2023-12-26T09:35:44.965Z,10.68
2023-12-26T09:36:50.317Z,12.60
2023-12-26T09:37:57.184Z,10.77
2023-12-26T09:39:04.329Z,13.50
2023-12-26T09:40:12.207Z,10.77
2023-12-26T09:41:17.711Z,10.20
2023-12-26T09:42:26.386Z,10.70
2023-12-26T09:43:32.037Z,11.20
2023-12-26T09:44:38.806Z,11.00
2023-12-26T09:45:44.691Z,12.85
2023-12-26T09:46:51.510Z,11.52
2023-12-26T09:47:57.236Z,11.48
2023-12-26T09:49:15.317Z,11.52
2023-12-26T09:50:22.828Z,10.93
2023-12-26T09:51:29.734Z,10.87
2023-12-26T09:52:35.388Z,11.43
2023-12-26T09:53:43.667Z,11.75
2023-12-26T09:54:52.629Z,10.85
2023-12-26T09:55:59.763Z,11.65
2023-12-26T09:57:06.147Z,11.93
2023-12-26T09:58:12.956Z,11.38
2023-12-26T09:59:18.533Z,11.63
2023-12-26T10:00:27.874Z,10.98
2023-12-26T10:01:33.659Z,11.55
2023-12-26T10:02:40.452Z,10.50
2023-12-26T10:03:46.471Z,10.85
2023-12-26T10:04:53.239Z,10.77
2023-12-26T10:06:00.223Z,10.80
2023-12-26T10:07:09.801Z,10.70
2023-12-26T10:08:15.186Z,10.85
2023-12-26T10:09:22.046Z,10.70
2023-12-26T10:10:29.328Z,10.63
2023-12-26T10:11:36.856Z,10.63
2023-12-26T10:12:42.330Z,10.50
2023-12-26T10:13:53.248Z,10.83
2023-12-26T10:15:01.884Z,11.02
2023-12-26T10:16:09.031Z,10.45
2023-12-26T10:17:15.476Z,11.40
2023-12-26T10:18:22.423Z,11.43
2023-12-26T10:19:28.748Z,11.70
2023-12-26T10:20:38.795Z,12.05
2023-12-26T10:21:45.034Z,12.18
2023-12-26T10:22:52.148Z,12.20
2023-12-26T10:23:59.703Z,12.38
2023-12-26T10:25:08.392Z,12.13
2023-12-26T10:26:15.511Z,11.90
2023-12-26T10:27:22.393Z,11.68
2023-12-26T10:28:27.879Z,12.15
2023-12-26T10:29:34.681Z,11.45
2023-12-26T10:30:40.300Z,11.45
2023-12-26T10:31:47.572Z,11.50
2023-12-26T10:33:02.909Z,12.18
2023-12-26T10:34:21.374Z,11.65
2023-12-26T10:35:27.654Z,11.60
2023-12-26T10:36:34.466Z,11.13
2023-12-26T10:37:39.900Z,10.95
2023-12-26T10:38:47.329Z,11.18
2023-12-26T10:39:52.833Z,12.20
2023-12-26T10:40:59.293Z,11.48
2023-12-26T10:42:09.001Z,12.85
2023-12-26T10:43:14.680Z,12.70
2023-12-26T10:44:22.117Z,12.60
2023-12-26T10:45:27.558Z,12.85
2023-12-26T10:46:34.417Z,13.48
2023-12-26T10:47:40.162Z,12.03
2023-12-26T10:48:49.134Z,12.20
2023-12-26T10:49:58.569Z,11.48
2023-12-26T10:51:05.912Z,11.95
2023-12-26T10:52:13.785Z,12.35
2023-12-26T10:53:22.451Z,12.90
2023-12-26T10:54:28.216Z,11.75
2023-12-26T10:55:35.480Z,11.93
2023-12-26T10:56:41.293Z,12.05
2023-12-26T10:57:50.165Z,11.95
2023-12-26T10:58:56.447Z,11.20
2023-12-26T11:00:53.184Z,11.55
2023-12-26T11:02:52.868Z,9.68
2023-12-26T11:04:52.087Z,9.25
2023-12-26T11:06:51.715Z,9.98
2023-12-26T11:08:51.303Z,9.82
2023-12-26T11:10:50.964Z,10.07
2023-12-26T11:12:50.462Z,17.63
2023-12-26T11:14:49.786Z,12.45
2023-12-26T11:16:49.547Z,34.50
2023-12-26T11:18:49.448Z,27.53
2023-12-26T11:20:48.812Z,21.15
2023-12-26T11:22:48.495Z,25.40
2023-12-26T11:24:48.465Z,14.05
2023-12-26T11:26:47.889Z,14.55
2023-12-26T11:28:47.502Z,13.48
2023-12-26T11:30:47.282Z,13.35
2023-12-26T11:32:46.636Z,14.70
2023-12-26T11:34:46.218Z,24.80
2023-12-26T11:36:46.406Z,109.90
2023-12-26T11:38:45.732Z,22.07
2023-12-26T11:40:45.392Z,34.97
2023-12-26T11:42:46.413Z,32.40
2023-12-26T11:44:45.620Z,138.13
2023-12-26T11:46:45.303Z,55.22
2023-12-26T11:48:47.368Z,20.00
2023-12-26T11:50:48.678Z,107.28
2023-12-26T11:52:48.400Z,32.53
2023-12-26T11:54:49.146Z,35.80
2023-12-26T11:56:48.632Z,25.85
2023-12-26T11:58:48.134Z,26.73
2023-12-26T12:00:47.434Z,28.52
2023-12-26T12:02:46.866Z,27.73
2023-12-26T12:04:46.475Z,44.03
2023-12-26T12:06:46.291Z,45.85
2023-12-26T12:08:45.520Z,40.22
2023-12-26T12:10:44.883Z,35.10
2023-12-26T12:12:44.257Z,32.15
2023-12-26T12:14:43.677Z,32.92
2023-12-26T12:16:43.249Z,29.83
2023-12-26T12:18:42.854Z,31.13
2023-12-26T12:20:42.157Z,27.65
2023-12-26T12:22:41.784Z,26.30
2023-12-26T12:24:41.724Z,24.52
2023-12-26T12:26:41.456Z,21.92
2023-12-26T12:28:40.978Z,21.90
2023-12-26T12:30:40.501Z,22.65
2023-12-26T12:32:40.013Z,20.45
2023-12-26T12:34:39.512Z,18.05
2023-12-26T12:36:39.078Z,20.23
2023-12-26T12:38:38.707Z,20.00
2023-12-26T12:40:38.201Z,20.70
2023-12-26T12:42:37.863Z,20.98
2023-12-26T12:44:37.123Z,29.02
2023-12-26T12:46:36.659Z,27.27
2023-12-26T12:48:35.983Z,32.60
2023-12-26T12:50:35.163Z,36.83
2023-12-26T12:52:34.792Z,23.48
2023-12-26T12:54:34.188Z,21.00
2023-12-26T12:56:33.810Z,20.60
2023-12-26T12:58:33.069Z,20.27
2023-12-26T13:00:32.858Z,19.55
2023-12-26T13:02:31.999Z,27.05
2023-12-26T13:04:31.163Z,33.90
2023-12-26T13:06:30.600Z,31.85
2023-12-26T13:08:30.086Z,26.70
2023-12-26T13:10:29.322Z,22.55
2023-12-26T13:12:29.011Z,21.52
2023-12-26T13:14:28.563Z,22.05
2023-12-26T13:16:27.980Z,21.17
2023-12-26T13:18:27.873Z,19.70
2023-12-26T13:20:27.333Z,21.50
2023-12-26T13:22:26.907Z,23.67
2023-12-26T13:24:26.509Z,20.45
2023-12-26T13:26:30.897Z,18.88
2023-12-26T13:28:30.365Z,17.35
2023-12-26T13:30:29.817Z,23.98
2023-12-26T13:32:29.579Z,19.83
2023-12-26T13:34:29.286Z,20.38
2023-12-26T13:36:28.951Z,21.35
2023-12-26T13:38:28.585Z,18.80
2023-12-26T13:40:28.162Z,23.20
2023-12-26T13:42:27.847Z,25.08
2023-12-26T13:44:27.316Z,24.80
2023-12-26T13:46:26.565Z,19.15
2023-12-26T13:48:26.138Z,21.75
2023-12-26T13:50:35.447Z,31.70
2023-12-26T13:52:18.910Z,22.10
2023-12-26T13:54:00.339Z,27.30
2023-12-26T13:55:42.876Z,24.13
2023-12-26T13:57:24.082Z,22.93
2023-12-26T13:59:06.937Z,20.40
2023-12-26T14:00:48.520Z,22.63
2023-12-26T14:02:31.440Z,21.25
2023-12-26T14:04:14.248Z,21.63
2023-12-26T14:05:56.565Z,21.50
2023-12-26T14:07:39.568Z,18.98
2023-12-26T14:09:22.474Z,19.85
2023-12-26T14:11:04.092Z,23.85
2023-12-26T14:12:46.856Z,20.92
2023-12-26T14:14:27.878Z,20.97
2023-12-26T14:16:11.822Z,20.60
2023-12-26T14:17:57.063Z,19.85
2023-12-26T14:19:38.696Z,19.88
2023-12-26T14:21:21.268Z,20.67
2023-12-26T14:23:02.504Z,19.88
2023-12-26T14:24:45.279Z,20.45
2023-12-26T14:26:26.388Z,18.42
2023-12-26T14:28:08.955Z,17.98
2023-12-26T14:29:50.178Z,19.00
2023-12-26T14:31:33.307Z,19.43
2023-12-26T14:33:16.381Z,16.75
2023-12-26T14:34:59.163Z,17.45
2023-12-26T14:36:40.269Z,17.88
2023-12-26T14:38:24.771Z,18.88
2023-12-26T14:40:06.309Z,18.55
2023-12-26T14:41:48.684Z,17.95
2023-12-26T14:43:30.009Z,19.60
2023-12-26T14:45:12.669Z,19.13
2023-12-26T14:46:55.514Z,20.30
2023-12-26T14:48:36.589Z,20.10
2023-12-26T14:50:19.631Z,18.27
2023-12-26T14:52:00.510Z,20.50
2023-12-26T14:53:43.251Z,20.23
2023-12-26T14:55:24.106Z,26.70
2023-12-26T14:57:06.910Z,42.50
2023-12-26T14:58:49.334Z,38.47
2023-12-26T15:00:31.057Z,41.45
2023-12-26T15:02:00.679Z,44.92
2023-12-26T15:03:06.248Z,51.83
2023-12-26T15:04:13.191Z,51.50
2023-12-26T15:05:18.926Z,54.97
2023-12-26T15:06:25.742Z,61.60
2023-12-26T15:07:31.204Z,62.42
2023-12-26T15:08:37.921Z,62.13
2023-12-26T15:09:43.323Z,61.92
2023-12-26T15:10:50.010Z,62.17
2023-12-26T15:11:55.457Z,61.60
2023-12-26T15:13:03.476Z,59.67
2023-12-26T15:14:24.112Z,57.95
2023-12-26T15:15:35.702Z,56.50
2023-12-26T15:16:41.080Z,54.03
2023-12-26T15:17:49.901Z,51.17
2023-12-26T15:18:55.525Z,43.35
2023-12-26T15:20:02.524Z,42.50
2023-12-26T15:21:08.331Z,34.25
2023-12-26T15:22:15.583Z,32.47
2023-12-26T15:23:21.053Z,30.73
2023-12-26T15:24:28.693Z,30.15
2023-12-26T15:25:34.265Z,28.45
2023-12-26T15:26:41.328Z,29.60
2023-12-26T15:27:46.752Z,29.08
2023-12-26T15:28:53.592Z,30.15
2023-12-26T15:29:59.127Z,27.75
2023-12-26T15:31:06.120Z,26.65
2023-12-26T15:32:12.125Z,27.25
2023-12-26T15:33:21.050Z,26.85
2023-12-26T15:34:26.873Z,28.17
2023-12-26T15:35:33.772Z,28.58
2023-12-26T15:36:39.147Z,28.73
2023-12-26T15:37:46.411Z,30.10
2023-12-26T15:38:52.140Z,30.20
2023-12-26T15:39:59.398Z,29.13
2023-12-26T15:41:04.944Z,29.80
2023-12-26T15:42:10.436Z,30.50
2023-12-26T15:43:17.221Z,30.08
2023-12-26T15:44:22.627Z,29.10
2023-12-26T15:45:29.460Z,29.08
2023-12-26T15:46:35.020Z,27.80
2023-12-26T15:47:41.924Z,28.98
2023-12-26T15:48:50.116Z,27.57
2023-12-26T15:49:58.202Z,27.70
2023-12-26T15:51:03.705Z,28.90
2023-12-26T15:52:12.089Z,27.67
2023-12-26T15:53:17.502Z,29.30
2023-12-26T15:54:24.359Z,27.70
2023-12-26T15:55:29.820Z,28.48
2023-12-26T15:56:36.620Z,29.70
2023-12-26T15:57:42.096Z,30.40
2023-12-26T15:58:47.566Z,28.75
2023-12-26T15:59:54.309Z,34.63
2023-12-26T16:01:01.956Z,33.60
2023-12-26T16:02:08.907Z,33.40
2023-12-26T16:03:15.963Z,32.05
2023-12-26T16:04:24.796Z,31.05